Time;durP1;ratioP1;P1;durP2;ratioP2;P2;SDS_P1;SDS_P2;PMS_P1;PMS_P2;Temp;Humidity;BMP_temperature;BMP_pressure;BME280_temperature;BME280_humidity;BME280_pressure;Samples;Min_cycle;Max_cycle;Signal;HPM_P1;HPM_P2
2021/08/31 00:01:21;;;;;;;31.73;17.05;;;11.70;98.50;;;;;;5003959;28;20071;-68
2021/08/31 00:03:46;;;;;;;29.88;17.38;;;11.70;98.40;;;;;;5011472;28;20404;-67
2021/08/31 00:06:12;;;;;;;35.15;19.05;;;11.60;98.50;;;;;;5003904;28;20509;-67
2021/08/31 00:08:37;;;;;;;35.90;19.52;;;11.60;98.50;;;;;;4996998;28;20037;-66
2021/08/31 00:11:03;;;;;;;30.77;17.83;;;11.60;98.50;;;;;;5002961;28;20127;-68
2021/08/31 00:13:29;;;;;;;33.42;18.13;;;11.50;98.50;;;;;;5008533;28;20042;-67
2021/08/31 00:15:54;;;;;;;30.70;17.95;;;11.50;98.50;;;;;;5002968;28;20123;-68
2021/08/31 00:18:20;;;;;;;32.60;18.45;;;11.50;98.60;;;;;;5004742;28;20505;-66
2021/08/31 00:20:46;;;;;;;31.00;18.10;;;11.50;98.50;;;;;;5008875;28;20089;-67
2021/08/31 00:23:13;;;;;;;32.95;18.25;;;11.40;98.50;;;;;;5009828;28;20030;-66
2021/08/31 00:25:38;;;;;;;34.40;18.02;;;11.30;98.40;;;;;;5001378;28;20029;-68
2021/08/31 00:28:04;;;;;;;34.70;17.77;;;11.30;98.40;;;;;;5007580;28;20022;-68
2021/08/31 00:30:30;;;;;;;31.95;18.15;;;11.30;98.40;;;;;;5004681;28;20029;-67
2021/08/31 00:32:55;;;;;;;32.53;18.45;;;11.30;98.60;;;;;;5008064;28;20084;-67
2021/08/31 00:35:21;;;;;;;35.88;19.20;;;11.30;98.50;;;;;;5001414;28;20049;-68
2021/08/31 00:37:47;;;;;;;40.17;20.20;;;11.30;98.60;;;;;;5007393;28;20030;-67
2021/08/31 00:40:13;;;;;;;34.53;20.10;;;11.30;98.70;;;;;;5007407;28;20384;-67
2021/08/31 00:42:38;;;;;;;34.70;18.90;;;11.30;98.60;;;;;;5011880;28;20050;-68
2021/08/31 00:45:05;;;;;;;42.40;20.38;;;11.20;98.60;;;;;;5000758;28;20483;-66
2021/08/31 00:47:30;;;;;;;38.53;21.42;;;11.20;98.70;;;;;;5000553;28;20065;-66
2021/08/31 00:49:56;;;;;;;40.30;20.63;;;11.10;98.70;;;;;;5001224;28;20053;-67
2021/08/31 00:52:22;;;;;;;42.40;20.65;;;11.20;98.80;;;;;;5007425;28;20034;-67
2021/08/31 00:54:48;;;;;;;45.40;21.80;;;11.20;98.80;;;;;;5004241;28;20045;-66
2021/08/31 00:57:15;;;;;;;41.50;21.02;;;11.20;98.90;;;;;;5001988;28;20029;-67
2021/08/31 00:59:41;;;;;;;49.00;21.95;;;11.20;98.90;;;;;;5003685;28;20029;-68
2021/08/31 01:02:06;;;;;;;48.00;23.13;;;11.20;98.90;;;;;;5005655;28;20034;-67
2021/08/31 01:04:32;;;;;;;49.17;23.02;;;11.30;98.90;;;;;;5004771;28;20501;-68
2021/08/31 01:06:59;;;;;;;52.30;23.55;;;11.30;98.90;;;;;;4998744;28;20374;-67
2021/08/31 01:09:28;;;;;;;50.80;24.48;;;11.30;99.10;;;;;;5004979;28;20026;-68
2021/08/31 01:11:56;;;;;;;50.67;23.38;;;11.30;99.00;;;;;;5006080;28;20474;-68
2021/08/31 01:14:23;;;;;;;52.72;22.88;;;11.40;99.10;;;;;;5007197;28;20044;-68
2021/08/31 01:16:50;;;;;;;47.53;23.02;;;11.30;99.10;;;;;;4997786;28;20040;-67
2021/08/31 01:19:30;;;;;;;47.15;23.60;;;11.30;99.20;;;;;;4998025;28;20240;-67
2021/08/31 01:21:59;;;;;;;57.40;24.33;;;11.40;99.20;;;;;;5012906;28;20265;-67
2021/08/31 01:24:24;;;;;;;55.20;25.13;;;11.40;99.30;;;;;;5003615;28;20048;-68
2021/08/31 01:26:50;;;;;;;56.00;23.90;;;11.30;99.20;;;;;;5002464;28;20018;-68
2021/08/31 01:29:16;;;;;;;54.42;24.95;;;11.30;99.20;;;;;;5006719;28;20065;-68
2021/08/31 01:31:42;;;;;;;52.42;23.95;;;11.30;99.30;;;;;;5004721;28;20080;-66
2021/08/31 01:34:08;;;;;;;60.13;25.42;;;11.30;99.40;;;;;;5002603;28;20052;-67
2021/08/31 01:36:34;;;;;;;54.92;23.98;;;11.40;99.40;;;;;;4997592;28;20030;-66
2021/08/31 01:38:59;;;;;;;57.00;25.48;;;11.30;99.30;;;;;;5003158;28;20025;-68
2021/08/31 01:41:26;;;;;;;52.00;24.98;;;11.30;99.30;;;;;;5004214;28;20025;-68
2021/08/31 01:43:52;;;;;;;56.35;24.92;;;11.30;99.40;;;;;;5007218;28;20429;-67
2021/08/31 01:46:18;;;;;;;58.15;25.67;;;11.30;99.40;;;;;;4997109;28;20165;-68
2021/08/31 01:48:44;;;;;;;58.33;25.40;;;11.20;99.40;;;;;;4997861;28;20080;-68
2021/08/31 01:51:10;;;;;;;56.78;24.83;;;11.20;99.40;;;;;;5003757;28;20289;-67
2021/08/31 01:53:37;;;;;;;56.03;24.10;;;11.20;99.50;;;;;;5006631;28;20036;-68
2021/08/31 01:56:03;;;;;;;59.75;24.52;;;11.20;99.40;;;;;;4998460;28;20931;-68
2021/08/31 01:58:29;;;;;;;56.78;23.63;;;11.20;99.50;;;;;;5002389;28;20034;-68
2021/08/31 02:00:55;;;;;;;55.15;24.83;;;11.20;99.40;;;;;;4999061;28;20030;-68
2021/08/31 02:03:21;;;;;;;51.55;22.45;;;11.20;99.50;;;;;;5008655;28;20057;-67
2021/08/31 02:05:46;;;;;;;62.83;24.48;;;11.20;99.50;;;;;;5004822;28;20022;-68
2021/08/31 02:08:12;;;;;;;61.60;25.10;;;11.10;99.50;;;;;;5005910;28;20419;-66
2021/08/31 02:10:38;;;;;;;56.08;23.92;;;11.10;99.50;;;;;;5006263;28;20034;-68
2021/08/31 02:13:04;;;;;;;60.08;24.77;;;11.10;99.50;;;;;;5003780;28;20108;-68
2021/08/31 02:15:29;;;;;;;60.80;25.40;;;11.10;99.50;;;;;;5002467;28;20036;-68
2021/08/31 02:17:55;;;;;;;58.35;24.45;;;11.10;99.60;;;;;;5003165;28;20026;-68
2021/08/31 02:20:21;;;;;;;58.75;24.58;;;11.10;99.50;;;;;;5007774;28;20481;-66
2021/08/31 02:22:47;;;;;;;62.85;25.50;;;11.10;99.50;;;;;;5013839;28;20105;-66
2021/08/31 02:25:12;;;;;;;63.33;25.58;;;11.00;99.50;;;;;;5004743;28;20159;-68
2021/08/31 02:27:38;;;;;;;71.20;26.30;;;11.10;99.60;;;;;;5001245;28;20022;-67
2021/08/31 02:30:05;;;;;;;54.55;25.45;;;11.10;99.60;;;;;;5003102;28;20032;-68
2021/08/31 02:32:31;;;;;;;62.25;24.38;;;11.10;99.60;;;;;;5000840;28;20481;-67
2021/08/31 02:34:57;;;;;;;67.28;26.42;;;11.00;99.50;;;;;;5005227;28;20031;-70
2021/08/31 02:37:22;;;;;;;66.45;26.80;;;11.00;99.60;;;;;;5010837;28;20029;-68
2021/08/31 02:39:48;;;;;;;71.13;28.73;;;11.00;99.60;;;;;;5010069;28;20030;-66
2021/08/31 02:42:13;;;;;;;75.07;27.33;;;11.00;99.60;;;;;;5004254;28;20405;-68
2021/08/31 02:44:39;;;;;;;65.90;28.20;;;11.00;99.70;;;;;;5005921;28;20437;-68
2021/08/31 02:47:05;;;;;;;61.03;26.83;;;11.00;99.60;;;;;;5002537;28;20164;-67
2021/08/31 02:49:31;;;;;;;66.90;27.40;;;10.90;99.60;;;;;;5005336;28;20345;-66
2021/08/31 02:51:57;;;;;;;75.65;28.52;;;10.90;99.60;;;;;;5003828;28;20397;-68
2021/08/31 02:54:22;;;;;;;64.35;26.67;;;10.80;99.50;;;;;;5007088;28;20477;-68
2021/08/31 02:56:48;;;;;;;73.28;28.90;;;10.80;99.60;;;;;;4999789;28;20167;-69
2021/08/31 02:59:13;;;;;;;64.65;25.60;;;10.80;99.50;;;;;;5004573;28;20488;-67
2021/08/31 03:04:23;;;;;;;60.55;25.02;;;10.60;99.40;;;;;;5003949;28;20061;-68
2021/08/31 03:06:48;;;;;;;58.08;25.25;;;10.60;99.50;;;;;;5003679;28;20084;-68
2021/08/31 03:09:14;;;;;;;65.28;26.58;;;10.50;99.40;;;;;;5003208;28;20033;-67
2021/08/31 03:11:40;;;;;;;60.55;24.88;;;10.60;99.50;;;;;;5004510;28;20064;-68
2021/08/31 03:14:05;;;;;;;63.50;26.77;;;10.50;99.50;;;;;;5006109;28;20044;-68
2021/08/31 03:16:31;;;;;;;71.28;27.92;;;10.50;99.30;;;;;;5001933;28;20040;-67
2021/08/31 03:18:56;;;;;;;74.72;29.55;;;10.40;99.30;;;;;;4998358;28;20025;-66
2021/08/31 03:21:22;;;;;;;71.57;28.83;;;10.50;99.50;;;;;;5004000;28;20029;-68
2021/08/31 03:23:48;;;;;;;69.20;28.25;;;10.50;99.40;;;;;;5005487;28;20029;-66
2021/08/31 03:26:13;;;;;;;72.25;28.35;;;10.40;99.30;;;;;;5003600;28;20033;-66
2021/08/31 03:28:39;;;;;;;75.43;29.63;;;10.30;99.20;;;;;;5004528;28;20391;-68
2021/08/31 03:31:04;;;;;;;81.15;30.23;;;10.30;99.30;;;;;;5000643;28;20185;-68
2021/08/31 03:33:30;;;;;;;77.80;30.02;;;10.40;99.50;;;;;;5003781;28;20025;-68
2021/08/31 03:35:56;;;;;;;81.97;31.23;;;10.30;99.40;;;;;;5003397;28;20030;-68
2021/08/31 03:38:21;;;;;;;79.82;29.88;;;10.30;99.40;;;;;;5002229;28;20034;-67
2021/08/31 03:40:47;;;;;;;75.13;29.98;;;10.30;99.40;;;;;;5000834;28;20053;-68
2021/08/31 03:43:13;;;;;;;82.28;30.05;;;10.30;99.40;;;;;;5009649;28;20033;-68
2021/08/31 03:45:38;;;;;;;77.55;30.35;;;10.20;99.30;;;;;;5008249;28;20497;-68
2021/08/31 03:48:04;;;;;;;76.40;30.65;;;10.20;99.30;;;;;;5007870;28;20495;-68
2021/08/31 03:50:30;;;;;;;81.88;31.05;;;10.20;99.40;;;;;;5003339;28;20093;-69
2021/08/31 03:52:55;;;;;;;77.97;30.83;;;10.10;99.30;;;;;;5006770;28;20030;-68
2021/08/31 03:55:21;;;;;;;83.45;29.98;;;10.10;99.30;;;;;;5008236;28;20125;-68
2021/08/31 03:57:46;;;;;;;77.78;30.05;;;10.10;99.30;;;;;;5006809;28;20034;-66
2021/08/31 04:00:12;;;;;;;81.78;31.13;;;10.10;99.30;;;;;;5003438;28;20018;-67
2021/08/31 04:02:38;;;;;;;80.57;30.90;;;10.10;99.30;;;;;;5008583;28;20080;-67
2021/08/31 04:05:05;;;;;;;71.93;28.55;;;10.00;99.30;;;;;;5008033;28;20069;-68
2021/08/31 04:07:31;;;;;;;79.65;29.23;;;10.00;99.30;;;;;;4999297;28;20030;-68
2021/08/31 04:09:57;;;;;;;79.25;30.05;;;10.00;99.40;;;;;;5005296;28;20140;-68
2021/08/31 04:12:22;;;;;;;86.90;32.20;;;10.10;99.50;;;;;;5007138;28;20116;-68
2021/08/31 04:14:48;;;;;;;90.28;31.75;;;10.00;99.40;;;;;;5008957;28;20127;-68
2021/08/31 04:17:14;;;;;;;95.97;33.80;;;10.00;99.40;;;;;;5002471;28;20053;-67
2021/08/31 04:19:40;;;;;;;96.50;32.45;;;10.00;99.40;;;;;;5007099;28;20108;-67
2021/08/31 04:22:06;;;;;;;88.60;30.50;;;9.90;99.40;;;;;;5012586;28;20029;-65
2021/08/31 04:24:32;;;;;;;83.10;31.52;;;10.00;99.50;;;;;;5008583;28;20029;-65
2021/08/31 04:26:57;;;;;;;90.35;30.83;;;9.80;99.30;;;;;;5003535;28;20269;-63
2021/08/31 04:29:23;;;;;;;97.20;32.70;;;9.90;99.50;;;;;;4998459;28;20026;-63
2021/08/31 04:31:49;;;;;;;91.97;32.15;;;9.80;99.40;;;;;;5005746;28;20402;-63
2021/08/31 04:34:15;;;;;;;91.65;31.23;;;9.90;99.50;;;;;;5007409;28;20034;-62
2021/08/31 04:36:40;;;;;;;92.70;34.00;;;10.00;99.60;;;;;;4999758;28;20030;-63
2021/08/31 04:39:06;;;;;;;101.57;36.03;;;10.20;99.80;;;;;;5004501;28;20235;-63
2021/08/31 04:41:32;;;;;;;106.47;36.35;;;10.30;99.80;;;;;;5006441;28;20036;-61
2021/08/31 04:43:57;;;;;;;105.15;35.40;;;10.40;99.80;;;;;;5006415;28;20340;-64
2021/08/31 04:46:23;;;;;;;106.68;35.88;;;10.50;99.80;;;;;;4999919;28;20033;-63
2021/08/31 04:48:49;;;;;;;108.57;36.65;;;10.50;99.90;;;;;;5007635;28;20041;-63
2021/08/31 04:51:14;;;;;;;107.07;36.05;;;10.40;99.70;;;;;;5005058;28;20033;-64
2021/08/31 04:53:40;;;;;;;112.47;36.10;;;10.50;99.80;;;;;;5007226;28;20037;-63
2021/08/31 04:56:06;;;;;;;106.43;35.33;;;10.50;99.90;;;;;;5012073;28;20528;-64
2021/08/31 04:58:32;;;;;;;105.05;35.83;;;10.50;99.90;;;;;;5006520;28;20033;-63
2021/08/31 05:00:58;;;;;;;99.65;35.88;;;10.60;99.90;;;;;;5004280;28;20030;-64
2021/08/31 05:03:23;;;;;;;102.45;35.13;;;10.60;99.90;;;;;;5004591;28;20499;-62
2021/08/31 05:05:49;;;;;;;100.65;36.08;;;10.70;99.90;;;;;;5001553;28;20026;-63
2021/08/31 05:08:14;;;;;;;101.82;34.13;;;10.70;99.90;;;;;;4999117;28;20100;-62
2021/08/31 05:10:40;;;;;;;102.32;35.85;;;10.90;99.90;;;;;;5005309;28;20034;-64
2021/08/31 05:13:06;;;;;;;102.90;36.75;;;10.90;99.90;;;;;;5005325;28;20026;-63
2021/08/31 05:15:32;;;;;;;101.72;36.47;;;11.00;99.90;;;;;;5006482;28;20021;-62
2021/08/31 05:17:59;;;;;;;104.40;35.88;;;10.90;99.90;;;;;;4999825;28;20030;-63
2021/08/31 05:20:27;;;;;;;101.45;36.75;;;11.00;99.90;;;;;;5003370;28;20064;-63
2021/08/31 05:22:54;;;;;;;93.70;35.35;;;11.00;99.90;;;;;;5000343;28;20114;-64
2021/08/31 05:25:20;;;;;;;95.60;34.33;;;11.00;99.90;;;;;;4996301;28;20032;-62
2021/08/31 05:27:46;;;;;;;95.60;36.03;;;11.10;99.90;;;;;;4997544;28;20065;-64
2021/08/31 05:30:12;;;;;;;93.32;35.95;;;11.10;99.80;;;;;;5005820;28;20033;-64
2021/08/31 05:32:38;;;;;;;93.57;33.97;;;11.10;99.90;;;;;;4993704;28;20293;-63
2021/08/31 05:35:04;;;;;;;95.05;34.72;;;11.20;99.90;;;;;;4993180;28;20441;-63
2021/08/31 05:37:30;;;;;;;89.78;33.97;;;11.30;99.90;;;;;;5000850;28;20046;-64
2021/08/31 05:39:56;;;;;;;91.10;34.63;;;11.30;99.80;;;;;;5004457;28;20044;-64
2021/08/31 05:42:22;;;;;;;90.50;33.22;;;11.30;99.80;;;;;;5002285;28;20046;-64
2021/08/31 05:44:47;;;;;;;89.80;35.25;;;11.40;99.80;;;;;;5004686;28;20072;-64
2021/08/31 05:47:13;;;;;;;89.18;34.53;;;11.50;99.80;;;;;;4996670;28;20034;-64
2021/08/31 05:49:40;;;;;;;85.40;33.25;;;11.50;99.70;;;;;;4990196;28;20049;-64
2021/08/31 05:52:06;;;;;;;85.20;32.58;;;11.60;99.70;;;;;;4997818;28;20459;-64
2021/08/31 05:54:32;;;;;;;85.30;32.90;;;11.60;99.60;;;;;;4998159;28;20556;-62
2021/08/31 05:57:00;;;;;;;87.63;34.13;;;11.60;99.50;;;;;;5001516;28;20129;-64
2021/08/31 05:59:26;;;;;;;81.70;33.60;;;11.80;99.50;;;;;;5003049;28;20041;-64
2021/08/31 06:01:51;;;;;;;85.32;31.98;;;11.80;99.50;;;;;;5011700;28;20465;-64
2021/08/31 06:04:17;;;;;;;75.75;31.42;;;11.80;99.40;;;;;;5010336;28;20034;-64
2021/08/31 06:06:43;;;;;;;78.85;31.25;;;11.80;99.30;;;;;;5005760;28;20017;-63
2021/08/31 06:09:08;;;;;;;82.85;32.83;;;12.00;99.40;;;;;;5006141;28;20449;-64
2021/08/31 06:11:40;;;;;;;64.90;29.92;;;12.10;99.20;;;;;;5005181;28;20033;-63
2021/08/31 06:14:08;;;;;;;70.40;29.00;;;12.10;99.30;;;;;;4999613;28;20412;-64
2021/08/31 06:16:35;;;;;;;66.85;28.73;;;12.20;99.20;;;;;;5006045;28;20030;-61
2021/08/31 06:19:02;;;;;;;76.22;30.45;;;12.30;99.20;;;;;;5005995;28;20046;-64
2021/08/31 06:21:29;;;;;;;71.20;29.92;;;12.40;99.20;;;;;;5006491;28;20057;-62
2021/08/31 06:23:55;;;;;;;62.05;26.73;;;12.50;99.20;;;;;;5004855;28;20068;-62
2021/08/31 06:26:21;;;;;;;58.72;26.70;;;12.60;99.20;;;;;;5004132;28;20068;-61
2021/08/31 06:28:46;;;;;;;59.88;25.08;;;12.60;99.10;;;;;;5004471;28;20033;-62
2021/08/31 06:31:12;;;;;;;61.28;25.65;;;12.70;99.10;;;;;;5005271;28;20038;-63
2021/08/31 06:33:38;;;;;;;53.00;23.55;;;12.80;98.90;;;;;;5008262;28;20033;-64
2021/08/31 06:36:04;;;;;;;52.45;23.33;;;12.80;98.80;;;;;;5009916;28;20030;-63
2021/08/31 06:38:29;;;;;;;47.85;22.83;;;12.90;98.60;;;;;;5005204;28;20087;-64
2021/08/31 06:40:55;;;;;;;51.28;22.38;;;13.00;98.60;;;;;;5004629;28;20026;-62
2021/08/31 06:43:20;;;;;;;54.70;21.85;;;13.00;98.60;;;;;;5005159;28;20037;-64
2021/08/31 06:45:46;;;;;;;46.78;20.90;;;13.10;98.50;;;;;;4998738;28;20029;-64
2021/08/31 06:48:12;;;;;;;46.50;21.17;;;13.20;98.50;;;;;;4995346;28;20080;-63
2021/08/31 06:50:37;;;;;;;46.28;20.98;;;13.30;98.10;;;;;;4999568;28;20068;-63
2021/08/31 06:53:03;;;;;;;39.25;20.00;;;13.30;97.70;;;;;;5000352;28;20029;-64
2021/08/31 06:55:29;;;;;;;44.50;19.15;;;13.40;97.50;;;;;;5006533;28;20548;-64
2021/08/31 06:57:55;;;;;;;40.38;19.67;;;13.50;97.40;;;;;;5003097;28;20137;-62
2021/08/31 07:00:20;;;;;;;45.80;20.40;;;13.50;97.40;;;;;;5006175;28;20030;-63
2021/08/31 07:02:46;;;;;;;37.55;19.33;;;13.60;97.60;;;;;;5001653;28;20034;-64
2021/08/31 07:05:11;;;;;;;42.90;19.27;;;13.60;97.50;;;;;;4998051;28;20093;-64
2021/08/31 07:07:37;;;;;;;35.90;17.92;;;13.70;97.40;;;;;;5001435;28;20037;-63
2021/08/31 07:10:04;;;;;;;37.05;19.02;;;13.80;97.30;;;;;;4998024;28;20101;-64
2021/08/31 07:12:29;;;;;;;29.83;17.33;;;13.80;97.10;;;;;;5006533;28;20273;-63
2021/08/31 07:14:56;;;;;;;36.53;18.02;;;13.90;97.30;;;;;;5009512;28;20038;-64
2021/08/31 07:17:21;;;;;;;33.58;17.75;;;14.00;97.20;;;;;;5005520;28;20112;-64
2021/08/31 07:19:48;;;;;;;31.95;17.02;;;14.00;97.40;;;;;;5002971;28;20142;-64
2021/08/31 07:22:15;;;;;;;30.88;16.33;;;14.10;97.40;;;;;;5007679;28;20080;-63
2021/08/31 07:24:40;;;;;;;28.80;16.25;;;14.10;97.30;;;;;;5009795;28;20026;-64
2021/08/31 07:27:06;;;;;;;28.25;15.85;;;14.20;97.20;;;;;;5005004;28;20041;-63
2021/08/31 07:29:32;;;;;;;25.27;14.02;;;14.30;96.80;;;;;;5004609;28;20491;-63
2021/08/31 07:31:57;;;;;;;24.83;14.10;;;14.40;96.40;;;;;;5009117;28;20028;-64
2021/08/31 07:34:23;;;;;;;23.02;13.65;;;14.50;96.50;;;;;;5010277;28;20037;-63
2021/08/31 07:36:48;;;;;;;20.52;12.65;;;14.50;96.80;;;;;;5000971;28;20026;-62
2021/08/31 07:39:14;;;;;;;20.75;11.88;;;14.60;96.60;;;;;;5006986;28;20056;-62
2021/08/31 07:41:40;;;;;;;19.45;12.18;;;14.80;96.10;;;;;;5019970;28;20415;-64
2021/08/31 07:44:05;;;;;;;26.35;11.65;;;14.80;96.10;;;;;;5008762;28;20045;-64
2021/08/31 07:46:31;;;;;;;17.38;10.90;;;14.90;96.30;;;;;;5000682;28;20027;-64
2021/08/31 07:48:58;;;;;;;17.60;11.15;;;15.10;95.70;;;;;;5006243;28;20044;-63
2021/08/31 07:51:24;;;;;;;18.38;9.70;;;15.20;94.60;;;;;;5007594;28;20052;-64
2021/08/31 07:53:50;;;;;;;14.45;9.27;;;15.30;94.00;;;;;;5003251;28;20101;-64
2021/08/31 07:56:15;;;;;;;12.13;8.52;;;15.50;94.00;;;;;;4994895;28;20440;-64
2021/08/31 07:58:41;;;;;;;14.77;8.20;;;15.70;93.40;;;;;;5005840;28;20112;-63
2021/08/31 08:01:07;;;;;;;15.80;8.23;;;15.80;92.80;;;;;;5005459;28;20502;-63
2021/08/31 08:03:32;;;;;;;15.32;8.40;;;16.00;92.90;;;;;;5008743;28;20077;-63
2021/08/31 08:05:58;;;;;;;12.15;7.13;;;16.20;92.20;;;;;;5003019;28;20500;-64
2021/08/31 08:08:24;;;;;;;15.60;8.23;;;16.30;91.20;;;;;;4999180;28;20026;-64
2021/08/31 08:10:51;;;;;;;14.85;7.43;;;16.50;92.60;;;;;;5003957;28;20022;-64
2021/08/31 08:13:17;;;;;;;12.85;6.72;;;16.60;92.00;;;;;;5010591;28;20101;-62
2021/08/31 08:15:42;;;;;;;12.30;6.47;;;16.70;90.80;;;;;;5014912;28;20393;-65
2021/08/31 08:18:08;;;;;;;11.60;6.55;;;16.90;90.50;;;;;;5005172;28;20088;-64
2021/08/31 08:20:34;;;;;;;11.90;6.35;;;17.00;89.60;;;;;;5005798;28;20104;-65
2021/08/31 08:23:00;;;;;;;9.30;6.25;;;17.20;89.60;;;;;;5006853;28;20052;-65
2021/08/31 08:25:25;;;;;;;8.77;5.43;;;17.40;89.50;;;;;;4998234;28;20030;-65
2021/08/31 08:27:51;;;;;;;10.60;5.32;;;17.60;89.40;;;;;;5002453;28;20041;-64
2021/08/31 08:30:16;;;;;;;9.52;5.55;;;17.80;87.60;;;;;;5007274;28;20472;-65
2021/08/31 08:32:42;;;;;;;8.52;4.97;;;18.00;87.70;;;;;;5012751;28;20038;-65
2021/08/31 08:35:10;;;;;;;11.55;5.53;;;18.00;86.50;;;;;;5003861;28;20030;-65
2021/08/31 08:37:36;;;;;;;9.25;4.75;;;18.20;87.60;;;;;;5007503;28;20034;-65
2021/08/31 08:40:03;;;;;;;9.68;4.70;;;18.10;85.10;;;;;;5002783;28;20072;-65
2021/08/31 08:42:28;;;;;;;8.35;4.85;;;18.10;84.80;;;;;;5002811;28;20037;-65
2021/08/31 08:44:54;;;;;;;10.40;5.35;;;18.40;85.20;;;;;;5004363;28;20022;-64
2021/08/31 08:47:19;;;;;;;10.50;5.22;;;18.50;83.90;;;;;;5006496;28;20025;-66
2021/08/31 08:49:46;;;;;;;10.40;5.07;;;18.50;84.20;;;;;;4968001;28;1100131;-65
2021/08/31 08:52:12;;;;;;;7.95;4.30;;;18.70;82.80;;;;;;5007032;28;20116;-65
2021/08/31 08:54:40;;;;;;;6.63;4.55;;;18.90;84.70;;;;;;5002981;28;20064;-65
2021/08/31 08:57:06;;;;;;;7.22;3.78;;;19.00;84.80;;;;;;5004261;28;20034;-65
2021/08/31 08:59:32;;;;;;;10.10;4.15;;;19.00;83.70;;;;;;5003978;28;20033;-64
2021/08/31 09:01:57;;;;;;;6.00;3.78;;;19.20;80.50;;;;;;5007028;28;20057;-65
2021/08/31 09:04:47;;;;;;;10.75;4.38;;;19.40;80.40;;;;;;5004987;28;20547;-63
2021/08/31 09:07:25;;;;;;;6.18;3.42;;;19.60;82.70;;;;;;5002552;28;20033;-65
2021/08/31 09:10:10;;;;;;;5.50;3.45;;;19.60;77.50;;;;;;4999037;28;20022;-65
2021/08/31 09:12:36;;;;;;;7.97;3.50;;;19.60;78.40;;;;;;5005189;28;20482;-64
2021/08/31 09:15:17;;;;;;;9.00;3.65;;;19.70;75.20;;;;;;5007337;28;20079;-63
2021/08/31 09:18:03;;;;;;;5.63;3.22;;;20.00;76.30;;;;;;5003155;28;20202;-65
2021/08/31 09:20:29;;;;;;;5.55;3.05;;;20.00;75.30;;;;;;5002713;28;20116;-65
2021/08/31 09:22:55;;;;;;;6.72;3.60;;;20.10;71.90;;;;;;5002814;28;20352;-66
2021/08/31 09:25:32;;;;;;;5.85;3.30;;;20.00;75.70;;;;;;4993031;28;20512;-64
2021/08/31 09:27:58;;;;;;;6.45;3.42;;;20.00;73.60;;;;;;5003773;28;20535;-65
2021/08/31 09:30:30;;;;;;;6.63;3.53;;;20.10;74.80;;;;;;5003379;28;20049;-64
2021/08/31 09:33:16;;;;;;;6.97;3.58;;;20.10;71.60;;;;;;5000751;28;20064;-66
2021/08/31 09:35:44;;;;;;;5.65;3.67;;;20.40;76.30;;;;;;4998942;28;20551;-65
2021/08/31 09:38:16;;;;;;;7.38;4.05;;;20.80;72.50;;;;;;5005242;28;20045;-66
2021/08/31 09:40:46;;;;;;;6.57;3.33;;;20.70;73.20;;;;;;5003230;28;20481;-64
2021/08/31 09:43:17;;;;;;;6.57;3.15;;;20.80;72.60;;;;;;5003593;28;20248;-63
2021/08/31 09:45:45;;;;;;;7.15;3.65;;;20.80;71.80;;;;;;5006892;28;20026;-66
2021/08/31 09:48:13;;;;;;;7.85;3.65;;;20.90;73.80;;;;;;4994825;28;20034;-65
2021/08/31 09:50:45;;;;;;;7.25;3.60;;;20.90;69.80;;;;;;5006767;28;20037;-65
2021/08/31 09:53:17;;;;;;;8.50;3.42;;;20.80;71.80;;;;;;5001519;28;20404;-65
2021/08/31 09:55:45;;;;;;;6.13;3.40;;;21.00;73.20;;;;;;5000332;28;20025;-65
2021/08/31 09:58:23;;;;;;;7.22;3.40;;;21.20;70.20;;;;;;5001060;28;20058;-64
2021/08/31 10:00:49;;;;;;;7.97;3.40;;;21.30;71.30;;;;;;5000647;28;20026;-65
2021/08/31 10:03:16;;;;;;;8.80;3.58;;;21.50;69.30;;;;;;5004344;28;20432;-64
2021/08/31 10:05:43;;;;;;;7.50;3.00;;;21.50;69.80;;;;;;4995917;28;20030;-65
2021/08/31 10:08:10;;;;;;;10.30;3.72;;;21.70;70.20;;;;;;4995134;28;20428;-65
2021/08/31 10:10:38;;;;;;;8.30;3.53;;;21.50;66.90;;;;;;5006304;28;20030;-65
2021/08/31 10:13:12;;;;;;;7.53;3.03;;;21.70;67.20;;;;;;4998445;28;20486;-65
2021/08/31 10:15:41;;;;;;;6.28;3.10;;;21.60;68.90;;;;;;5004558;28;20025;-65
2021/08/31 10:18:09;;;;;;;9.13;3.47;;;21.70;68.50;;;;;;5001581;28;20044;-65
2021/08/31 10:20:43;;;;;;;6.35;3.35;;;21.80;67.70;;;;;;5002819;28;20030;-64
2021/08/31 10:23:09;;;;;;;5.88;3.00;;;22.00;67.70;;;;;;4999969;28;20030;-65
2021/08/31 10:25:35;;;;;;;6.07;3.10;;;22.10;63.10;;;;;;4997799;28;20022;-64
2021/08/31 10:28:00;;;;;;;5.93;3.38;;;22.20;65.50;;;;;;5001870;28;20022;-64
2021/08/31 10:30:33;;;;;;;5.65;3.25;;;22.40;63.40;;;;;;4995281;28;20026;-65
2021/08/31 10:33:01;;;;;;;5.97;3.20;;;22.50;66.30;;;;;;4996786;28;20331;-64
2021/08/31 10:35:36;;;;;;;6.22;3.13;;;22.50;65.20;;;;;;4998177;28;20531;-65
2021/08/31 10:38:04;;;;;;;8.23;2.90;;;22.50;60.10;;;;;;4998828;28;20030;-65
2021/08/31 10:40:32;;;;;;;5.95;3.00;;;22.40;58.70;;;;;;4998314;28;20026;-64
2021/08/31 10:43:00;;;;;;;5.88;3.13;;;22.50;61.50;;;;;;4995989;28;20109;-64
2021/08/31 10:45:27;;;;;;;7.43;3.22;;;22.80;63.00;;;;;;4991940;28;20030;-63
2021/08/31 10:47:52;;;;;;;4.57;2.75;;;23.10;62.60;;;;;;5002795;28;20026;-66
2021/08/31 10:50:24;;;;;;;5.82;3.08;;;23.30;61.40;;;;;;4994568;28;20424;-65
2021/08/31 10:52:56;;;;;;;4.72;2.80;;;23.30;63.30;;;;;;5001654;28;20065;-66
2021/08/31 10:55:25;;;;;;;6.13;3.22;;;23.30;58.40;;;;;;5005261;28;20030;-66
2021/08/31 10:58:10;;;;;;;6.00;3.42;;;23.10;58.10;;;;;;5002243;28;20038;-64
2021/08/31 11:00:39;;;;;;;6.22;3.10;;;22.70;58.20;;;;;;4995456;28;20123;-66
2021/08/31 11:03:05;;;;;;;8.30;2.85;;;23.00;62.00;;;;;;5004224;28;20052;-65
2021/08/31 11:05:34;;;;;;;5.18;3.13;;;22.80;64.20;;;;;;5006116;28;20458;-66
2021/08/31 11:08:00;;;;;;;6.75;3.10;;;23.30;63.80;;;;;;5000034;28;20106;-66
2021/08/31 11:10:26;;;;;;;4.68;3.05;;;23.00;59.60;;;;;;5006031;28;20045;-65
2021/08/31 11:12:53;;;;;;;5.00;3.10;;;22.80;60.70;;;;;;4986412;28;20189;-66
2021/08/31 11:15:23;;;;;;;7.95;2.75;;;22.90;62.40;;;;;;5000556;28;20117;-65
2021/08/31 11:17:49;;;;;;;5.45;2.97;;;23.60;60.70;;;;;;5005173;28;20112;-66
2021/08/31 11:20:23;;;;;;;5.47;3.70;;;22.90;59.70;;;;;;4997635;28;20076;-66
2021/08/31 11:23:05;;;;;;;8.75;3.50;;;23.30;61.40;;;;;;5001986;28;20033;-64
2021/08/31 11:25:39;;;;;;;8.88;3.47;;;23.70;59.30;;;;;;5006083;28;20030;-66
2021/08/31 11:28:11;;;;;;;5.13;2.88;;;23.90;59.50;;;;;;5004911;28;20076;-66
2021/08/31 11:30:50;;;;;;;9.18;3.30;;;24.20;54.50;;;;;;5006435;28;20457;-66
2021/08/31 11:33:42;;;;;;;5.13;3.08;;;23.20;56.70;;;;;;5003029;28;20055;-64
2021/08/31 11:36:17;;;;;;;8.25;3.08;;;23.40;59.50;;;;;;4997401;28;20552;-65
2021/08/31 11:38:54;;;;;;;4.13;2.83;;;24.30;61.70;;;;;;5005171;28;20129;-64
2021/08/31 11:41:24;;;;;;;4.63;2.95;;;24.10;57.60;;;;;;5006900;28;20113;-65
2021/08/31 11:43:58;;;;;;;5.05;3.17;;;24.30;53.90;;;;;;4999859;28;20041;-65
2021/08/31 11:46:29;;;;;;;4.72;2.92;;;24.50;53.20;;;;;;4999065;28;20100;-65
2021/08/31 11:49:24;;;;;;;7.93;3.08;;;24.80;52.90;;;;;;5005057;28;20028;-64
2021/08/31 11:52:05;;;;;;;9.13;3.42;;;24.80;56.20;;;;;;4975950;28;20038;-63
2021/08/31 11:54:39;;;;;;;5.00;3.00;;;24.80;53.20;;;;;;4998595;28;20033;-66
2021/08/31 11:57:07;;;;;;;6.78;2.83;;;24.90;51.20;;;;;;4999743;28;20030;-65
2021/08/31 11:59:43;;;;;;;6.03;3.00;;;25.30;52.90;;;;;;5001218;28;20065;-64
2021/08/31 12:02:22;;;;;;;6.28;3.00;;;25.40;51.70;;;;;;5003427;28;20032;-64
2021/08/31 12:04:54;;;;;;;4.75;2.70;;;25.60;54.60;;;;;;4995987;28;20040;-63
2021/08/31 12:07:23;;;;;;;4.20;2.75;;;26.00;50.60;;;;;;4996624;28;20818;-62
2021/08/31 12:09:53;;;;;;;6.00;3.08;;;25.90;50.10;;;;;;4995641;28;20033;-62
2021/08/31 12:12:20;;;;;;;4.40;3.05;;;25.60;50.70;;;;;;4997834;28;20100;-63
2021/08/31 12:14:47;;;;;;;4.90;3.22;;;25.80;53.30;;;;;;5010142;28;20452;-63
2021/08/31 12:17:13;;;;;;;5.28;3.13;;;24.50;54.10;;;;;;4990675;28;20434;-61
2021/08/31 12:19:45;;;;;;;6.13;3.13;;;24.50;55.60;;;;;;5000403;28;20077;-64
2021/08/31 12:22:12;;;;;;;7.05;3.30;;;24.70;52.50;;;;;;5013202;28;20297;-63
2021/08/31 12:24:44;;;;;;;6.22;3.35;;;25.50;56.50;;;;;;4999708;28;20017;-63
2021/08/31 12:27:14;;;;;;;6.43;3.28;;;24.80;55.90;;;;;;4999550;28;20106;-64
2021/08/31 12:29:57;;;;;;;5.68;3.17;;;24.50;56.30;;;;;;4999688;28;20374;-65
2021/08/31 12:32:28;;;;;;;8.35;3.35;;;25.40;53.30;;;;;;5004538;28;20037;-64
2021/08/31 12:34:56;;;;;;;5.10;2.75;;;25.90;50.50;;;;;;5002853;28;20034;-63
2021/08/31 12:37:25;;;;;;;7.75;2.83;;;25.90;49.60;;;;;;5013526;28;20030;-64